sensor_id;sensor_type;location;lat;lon;timestamp;temperature;humidity
8643;DHT22;4359;49.358;11.256;2023-03-01T09:19:40;4.70;99.90
8643;DHT22;4359;49.358;11.256;2023-03-01T09:22:05;4.80;99.90
8643;DHT22;4359;49.358;11.256;2023-03-01T09:24:31;4.90;99.90
8643;DHT22;4359;49.358;11.256;2023-03-01T09:48:19;4.90;99.90
8643;DHT22;4359;49.358;11.256;2023-03-01T09:50:47;5.00;99.90
8643;DHT22;4359;49.358;11.256;2023-03-01T09:53:15;5.10;99.90
8643;DHT22;4359;49.358;11.256;2023-03-01T09:55:43;4.90;99.90
8643;DHT22;4359;49.358;11.256;2023-03-01T10:00:44;5.10;99.90
8643;DHT22;4359;49.358;11.256;2023-03-01T10:06:19;5.30;99.90
8643;DHT22;4359;49.358;11.256;2023-03-01T10:09:02;5.50;99.90
8643;DHT22;4359;49.358;11.256;2023-03-01T10:11:39;5.50;99.90
8643;DHT22;4359;49.358;11.256;2023-03-01T10:14:12;5.40;99.90
8643;DHT22;4359;49.358;11.256;2023-03-01T10:19:40;5.90;99.90
8643;DHT22;4359;49.358;11.256;2023-03-01T10:22:16;5.60;99.90
8643;DHT22;4359;49.358;11.256;2023-03-01T10:24:43;5.40;99.90
8643;DHT22;4359;49.358;11.256;2023-03-01T10:27:17;5.30;99.90
8643;DHT22;4359;49.358;11.256;2023-03-01T10:29:49;5.40;99.90
8643;DHT22;4359;49.358;11.256;2023-03-01T10:32:16;5.10;99.90
8643;DHT22;4359;49.358;11.256;2023-03-01T10:34:42;5.10;99.90
8643;DHT22;4359;49.358;11.256;2023-03-01T10:37:11;5.20;99.90
8643;DHT22;4359;49.358;11.256;2023-03-01T10:39:37;5.30;99.90
8643;DHT22;4359;49.358;11.256;2023-03-01T10:42:19;5.40;99.90
8643;DHT22;4359;49.358;11.256;2023-03-01T10:44:47;5.40;99.90
8643;DHT22;4359;49.358;11.256;2023-03-01T10:49:55;5.40;99.90
8643;DHT22;4359;49.358;11.256;2023-03-01T10:52:21;5.20;99.90
8643;DHT22;4359;49.358;11.256;2023-03-01T10:54:51;5.10;99.90
8643;DHT22;4359;49.358;11.256;2023-03-01T10:57:50;5.10;99.90
8643;DHT22;4359;49.358;11.256;2023-03-01T11:00:24;5.10;99.90
8643;DHT22;4359;49.358;11.256;2023-03-01T11:02:51;5.10;99.90
8643;DHT22;4359;49.358;11.256;2023-03-01T11:05:26;5.30;99.90
8643;DHT22;4359;49.358;11.256;2023-03-01T11:07:56;5.40;99.90
8643;DHT22;4359;49.358;11.256;2023-03-01T11:10:26;5.40;99.90
8643;DHT22;4359;49.358;11.256;2023-03-01T11:12:52;5.50;99.90
8643;DHT22;4359;49.358;11.256;2023-03-01T11:15:23;5.60;99.90
8643;DHT22;4359;49.358;11.256;2023-03-01T11:17:49;5.80;99.90
8643;DHT22;4359;49.358;11.256;2023-03-01T11:20:18;6.20;99.90
8643;DHT22;4359;49.358;11.256;2023-03-01T11:22:47;6.50;99.90
8643;DHT22;4359;49.358;11.256;2023-03-01T11:25:14;6.80;99.90
8643;DHT22;4359;49.358;11.256;2023-03-01T11:27:40;7.10;99.90
8643;DHT22;4359;49.358;11.256;2023-03-01T11:30:12;7.40;99.90
8643;DHT22;4359;49.358;11.256;2023-03-01T11:32:49;7.30;99.90
8643;DHT22;4359;49.358;11.256;2023-03-01T11:35:17;7.30;99.90
8643;DHT22;4359;49.358;11.256;2023-03-01T11:37:54;7.70;99.90
8643;DHT22;4359;49.358;11.256;2023-03-01T11:48:25;8.00;99.90
8643;DHT22;4359;49.358;11.256;2023-03-01T11:50:54;8.10;99.90
8643;DHT22;4359;49.358;11.256;2023-03-01T11:53:34;8.20;99.90
8643;DHT22;4359;49.358;11.256;2023-03-01T11:56:05;8.30;99.90
8643;DHT22;4359;49.358;11.256;2023-03-01T11:58:42;8.30;99.90
8643;DHT22;4359;49.358;11.256;2023-03-01T12:01:17;8.40;99.90
8643;DHT22;4359;49.358;11.256;2023-03-01T12:06:55;8.50;99.90
8643;DHT22;4359;49.358;11.256;2023-03-01T12:12:52;8.70;99.90
8643;DHT22;4359;49.358;11.256;2023-03-01T12:23:02;9.00;99.90
8643;DHT22;4359;49.358;11.256;2023-03-01T12:25:38;8.90;99.90
8643;DHT22;4359;49.358;11.256;2023-03-01T12:33:19;8.90;99.90
8643;DHT22;4359;49.358;11.256;2023-03-01T12:35:57;9.00;99.90
8643;DHT22;4359;49.358;11.256;2023-03-01T12:38:49;9.20;99.90
8643;DHT22;4359;49.358;11.256;2023-03-01T12:43:45;8.80;99.90
8643;DHT22;4359;49.358;11.256;2023-03-01T12:48:51;9.10;99.90
8643;DHT22;4359;49.358;11.256;2023-03-01T12:51:26;8.90;99.90
8643;DHT22;4359;49.358;11.256;2023-03-01T12:53:53;9.50;99.90
8643;DHT22;4359;49.358;11.256;2023-03-01T12:56:24;10.10;99.90
8643;DHT22;4359;49.358;11.256;2023-03-01T13:04:12;9.90;99.90
8643;DHT22;4359;49.358;11.256;2023-03-01T13:06:44;10.00;99.90
8643;DHT22;4359;49.358;11.256;2023-03-01T13:11:40;9.60;99.90
8643;DHT22;4359;49.358;11.256;2023-03-01T13:16:50;9.00;99.90
8643;DHT22;4359;49.358;11.256;2023-03-01T13:19:23;9.40;99.90
8643;DHT22;4359;49.358;11.256;2023-03-01T13:21:50;9.60;99.90
8643;DHT22;4359;49.358;11.256;2023-03-01T13:24:29;9.60;99.90
8643;DHT22;4359;49.358;11.256;2023-03-01T13:34:48;9.40;99.90
8643;DHT22;4359;49.358;11.256;2023-03-01T13:37:18;9.10;99.90
8643;DHT22;4359;49.358;11.256;2023-03-01T13:39:44;9.10;99.90
8643;DHT22;4359;49.358;11.256;2023-03-01T13:42:55;9.10;99.90
8643;DHT22;4359;49.358;11.256;2023-03-01T13:44:59;9.10;99.90
8643;DHT22;4359;49.358;11.256;2023-03-01T13:47:25;9.20;99.90
8643;DHT22;4359;49.358;11.256;2023-03-01T13:54:49;9.50;99.90
8643;DHT22;4359;49.358;11.256;2023-03-01T13:57:18;9.30;99.90
8643;DHT22;4359;49.358;11.256;2023-03-01T13:59:48;9.10;99.90
8643;DHT22;4359;49.358;11.256;2023-03-01T14:02:14;9.20;99.90
8643;DHT22;4359;49.358;11.256;2023-03-01T14:04:40;8.90;99.90
8643;DHT22;4359;49.358;11.256;2023-03-01T14:07:12;8.70;99.90
8643;DHT22;4359;49.358;11.256;2023-03-01T14:09:40;8.80;99.90
8643;DHT22;4359;49.358;11.256;2023-03-01T14:14:38;9.10;99.90
8643;DHT22;4359;49.358;11.256;2023-03-01T14:19:31;9.10;99.90
8643;DHT22;4359;49.358;11.256;2023-03-01T14:24:44;9.00;99.90
8643;DHT22;4359;49.358;11.256;2023-03-01T14:27:11;9.20;99.90
8643;DHT22;4359;49.358;11.256;2023-03-01T14:29:38;9.10;99.90
8643;DHT22;4359;49.358;11.256;2023-03-01T14:34:35;9.00;99.90
8643;DHT22;4359;49.358;11.256;2023-03-01T14:39:56;8.60;99.90
8643;DHT22;4359;49.358;11.256;2023-03-01T14:42:23;8.30;99.90
8643;DHT22;4359;49.358;11.256;2023-03-01T14:44:50;8.20;99.90
8643;DHT22;4359;49.358;11.256;2023-03-01T14:49:53;7.90;99.90
8643;DHT22;4359;49.358;11.256;2023-03-01T14:52:22;7.70;99.90
8643;DHT22;4359;49.358;11.256;2023-03-01T14:54:53;7.60;99.90
8643;DHT22;4359;49.358;11.256;2023-03-01T14:57:20;7.60;99.90
8643;DHT22;4359;49.358;11.256;2023-03-01T14:59:47;7.50;99.90
8643;DHT22;4359;49.358;11.256;2023-03-01T15:02:16;7.50;99.90
8643;DHT22;4359;49.358;11.256;2023-03-01T15:04:43;7.40;99.90
8643;DHT22;4359;49.358;11.256;2023-03-01T15:07:11;7.40;99.90
8643;DHT22;4359;49.358;11.256;2023-03-01T15:09:39;7.30;99.90
8643;DHT22;4359;49.358;11.256;2023-03-01T15:14:50;7.30;99.90
8643;DHT22;4359;49.358;11.256;2023-03-01T15:19:55;7.10;99.90
8643;DHT22;4359;49.358;11.256;2023-03-01T15:22:21;7.10;99.90
8643;DHT22;4359;49.358;11.256;2023-03-01T15:24:50;7.10;99.90
8643;DHT22;4359;49.358;11.256;2023-03-01T15:27:16;7.10;99.90
8643;DHT22;4359;49.358;11.256;2023-03-01T15:29:59;7.10;99.90
8643;DHT22;4359;49.358;11.256;2023-03-01T15:32:29;7.10;99.90
8643;DHT22;4359;49.358;11.256;2023-03-01T15:34:55;7.10;99.90
8643;DHT22;4359;49.358;11.256;2023-03-01T15:40:18;6.90;99.90
8643;DHT22;4359;49.358;11.256;2023-03-01T15:42:45;6.90;99.90
8643;DHT22;4359;49.358;11.256;2023-03-01T15:47:52;6.70;99.90
8643;DHT22;4359;49.358;11.256;2023-03-01T15:50:22;6.70;99.90
8643;DHT22;4359;49.358;11.256;2023-03-01T15:52:49;6.70;99.90
8643;DHT22;4359;49.358;11.256;2023-03-01T15:55:16;6.70;99.90
8643;DHT22;4359;49.358;11.256;2023-03-01T15:57:42;6.60;99.90
8643;DHT22;4359;49.358;11.256;2023-03-01T16:00:09;6.50;99.90
8643;DHT22;4359;49.358;11.256;2023-03-01T16:02:42;6.50;99.90
8643;DHT22;4359;49.358;11.256;2023-03-01T16:05:27;6.50;99.90
8643;DHT22;4359;49.358;11.256;2023-03-01T16:07:53;6.50;99.90
8643;DHT22;4359;49.358;11.256;2023-03-01T16:10:20;6.50;99.90
8643;DHT22;4359;49.358;11.256;2023-03-01T16:12:46;6.40;99.90
8643;DHT22;4359;49.358;11.256;2023-03-01T16:15:27;6.30;99.90
8643;DHT22;4359;49.358;11.256;2023-03-01T16:17:53;6.20;99.90
8643;DHT22;4359;49.358;11.256;2023-03-01T16:20:19;6.10;99.90
8643;DHT22;4359;49.358;11.256;2023-03-01T16:22:45;6.00;99.90
8643;DHT22;4359;49.358;11.256;2023-03-01T16:25:15;5.90;99.90
8643;DHT22;4359;49.358;11.256;2023-03-01T16:27:42;5.90;99.90
8643;DHT22;4359;49.358;11.256;2023-03-01T16:30:07;5.80;99.90
8643;DHT22;4359;49.358;11.256;2023-03-01T16:32:37;5.70;99.90
8643;DHT22;4359;49.358;11.256;2023-03-01T16:35:02;5.70;99.90
8643;DHT22;4359;49.358;11.256;2023-03-01T16:37:28;5.50;99.90
8643;DHT22;4359;49.358;11.256;2023-03-01T16:39:56;5.50;99.90
8643;DHT22;4359;49.358;11.256;2023-03-01T16:42:22;5.40;99.90
8643;DHT22;4359;49.358;11.256;2023-03-01T16:44:47;5.30;99.90
8643;DHT22;4359;49.358;11.256;2023-03-01T16:47:13;5.30;99.90
8643;DHT22;4359;49.358;11.256;2023-03-01T16:49:38;5.10;99.90
8643;DHT22;4359;49.358;11.256;2023-03-01T16:52:04;4.90;99.90
8643;DHT22;4359;49.358;11.256;2023-03-01T16:54:29;4.80;99.90
8643;DHT22;4359;49.358;11.256;2023-03-01T16:56:55;4.80;99.90
8643;DHT22;4359;49.358;11.256;2023-03-01T16:59:20;4.70;99.90
8643;DHT22;4359;49.358;11.256;2023-03-01T17:01:46;4.60;99.90
8643;DHT22;4359;49.358;11.256;2023-03-01T17:04:12;4.50;99.90
8643;DHT22;4359;49.358;11.256;2023-03-01T17:06:38;4.40;99.90
8643;DHT22;4359;49.358;11.256;2023-03-01T17:09:04;4.30;99.90
8643;DHT22;4359;49.358;11.256;2023-03-01T17:11:29;4.30;99.90
8643;DHT22;4359;49.358;11.256;2023-03-01T17:13:55;4.30;99.90
8643;DHT22;4359;49.358;11.256;2023-03-01T17:16:21;4.20;99.90
8643;DHT22;4359;49.358;11.256;2023-03-01T17:18:47;4.20;99.90
8643;DHT22;4359;49.358;11.256;2023-03-01T17:21:13;4.10;99.90
8643;DHT22;4359;49.358;11.256;2023-03-01T17:23:39;4.10;99.90
8643;DHT22;4359;49.358;11.256;2023-03-01T17:26:05;4.00;99.90
8643;DHT22;4359;49.358;11.256;2023-03-01T17:28:31;4.10;99.90
8643;DHT22;4359;49.358;11.256;2023-03-01T17:30:58;4.00;99.90
8643;DHT22;4359;49.358;11.256;2023-03-01T17:33:23;3.90;99.90
8643;DHT22;4359;49.358;11.256;2023-03-01T17:35:49;3.90;99.90
8643;DHT22;4359;49.358;11.256;2023-03-01T17:38:15;3.90;99.90
8643;DHT22;4359;49.358;11.256;2023-03-01T17:40:41;4.00;99.90
8643;DHT22;4359;49.358;11.256;2023-03-01T17:43:07;3.80;99.90
8643;DHT22;4359;49.358;11.256;2023-03-01T17:45:35;3.60;99.90
8643;DHT22;4359;49.358;11.256;2023-03-01T17:48:00;3.50;99.90
8643;DHT22;4359;49.358;11.256;2023-03-01T17:50:26;3.40;99.90
8643;DHT22;4359;49.358;11.256;2023-03-01T17:52:51;3.30;99.90
8643;DHT22;4359;49.358;11.256;2023-03-01T17:55:17;3.10;99.90
8643;DHT22;4359;49.358;11.256;2023-03-01T17:57:42;2.90;99.90
8643;DHT22;4359;49.358;11.256;2023-03-01T18:00:09;2.80;99.90
8643;DHT22;4359;49.358;11.256;2023-03-01T18:02:35;2.80;99.90
8643;DHT22;4359;49.358;11.256;2023-03-01T18:05:01;2.90;99.90
8643;DHT22;4359;49.358;11.256;2023-03-01T18:07:27;3.00;99.90
8643;DHT22;4359;49.358;11.256;2023-03-01T18:09:52;2.90;99.90
8643;DHT22;4359;49.358;11.256;2023-03-01T18:12:18;3.00;99.90
8643;DHT22;4359;49.358;11.256;2023-03-01T18:14:43;3.00;99.90
8643;DHT22;4359;49.358;11.256;2023-03-01T18:17:09;3.00;99.90
8643;DHT22;4359;49.358;11.256;2023-03-01T18:19:39;3.00;99.90
8643;DHT22;4359;49.358;11.256;2023-03-01T18:22:08;3.20;99.90
8643;DHT22;4359;49.358;11.256;2023-03-01T18:24:34;3.20;99.90
8643;DHT22;4359;49.358;11.256;2023-03-01T18:27:00;3.30;99.90
8643;DHT22;4359;49.358;11.256;2023-03-01T18:29:26;3.30;99.90
8643;DHT22;4359;49.358;11.256;2023-03-01T18:31:52;3.20;99.90
8643;DHT22;4359;49.358;11.256;2023-03-01T18:34:18;3.20;99.90
8643;DHT22;4359;49.358;11.256;2023-03-01T18:36:43;3.20;99.90
8643;DHT22;4359;49.358;11.256;2023-03-01T18:39:09;3.20;99.90
8643;DHT22;4359;49.358;11.256;2023-03-01T18:41:35;3.20;99.90
8643;DHT22;4359;49.358;11.256;2023-03-01T18:44:01;3.10;99.90
8643;DHT22;4359;49.358;11.256;2023-03-01T18:46:27;3.10;99.90
8643;DHT22;4359;49.358;11.256;2023-03-01T18:48:52;3.00;99.90
8643;DHT22;4359;49.358;11.256;2023-03-01T18:51:19;2.90;99.90
8643;DHT22;4359;49.358;11.256;2023-03-01T18:53:45;2.90;99.90
8643;DHT22;4359;49.358;11.256;2023-03-01T18:56:11;3.00;99.90
8643;DHT22;4359;49.358;11.256;2023-03-01T18:58:37;3.00;99.90
8643;DHT22;4359;49.358;11.256;2023-03-01T19:01:03;2.90;99.90
8643;DHT22;4359;49.358;11.256;2023-03-01T19:03:32;2.90;99.90
8643;DHT22;4359;49.358;11.256;2023-03-01T19:05:58;2.80;99.90
8643;DHT22;4359;49.358;11.256;2023-03-01T19:08:27;2.60;99.90
8643;DHT22;4359;49.358;11.256;2023-03-01T19:10:54;2.40;99.90
8643;DHT22;4359;49.358;11.256;2023-03-01T19:13:19;2.40;99.90
8643;DHT22;4359;49.358;11.256;2023-03-01T19:15:45;2.30;99.90
8643;DHT22;4359;49.358;11.256;2023-03-01T19:18:10;2.30;99.90
8643;DHT22;4359;49.358;11.256;2023-03-01T19:20:36;2.30;99.90
8643;DHT22;4359;49.358;11.256;2023-03-01T19:23:01;2.30;99.90
8643;DHT22;4359;49.358;11.256;2023-03-01T19:25:27;2.10;99.90
8643;DHT22;4359;49.358;11.256;2023-03-01T19:27:52;2.00;99.90
8643;DHT22;4359;49.358;11.256;2023-03-01T19:30:18;1.90;99.90
8643;DHT22;4359;49.358;11.256;2023-03-01T19:32:43;1.80;99.90
8643;DHT22;4359;49.358;11.256;2023-03-01T19:35:09;1.90;99.90
8643;DHT22;4359;49.358;11.256;2023-03-01T19:37:34;1.70;99.90
8643;DHT22;4359;49.358;11.256;2023-03-01T19:40:00;1.80;99.90
8643;DHT22;4359;49.358;11.256;2023-03-01T19:42:25;1.70;99.90
8643;DHT22;4359;49.358;11.256;2023-03-01T19:44:53;1.60;99.90
8643;DHT22;4359;49.358;11.256;2023-03-01T19:47:18;1.60;99.90
8643;DHT22;4359;49.358;11.256;2023-03-01T19:49:44;1.60;99.90
8643;DHT22;4359;49.358;11.256;2023-03-01T19:52:09;1.40;99.90
8643;DHT22;4359;49.358;11.256;2023-03-01T19:54:35;1.20;99.90
8643;DHT22;4359;49.358;11.256;2023-03-01T19:57:00;1.00;99.90
8643;DHT22;4359;49.358;11.256;2023-03-01T19:59:26;0.90;99.90
8643;DHT22;4359;49.358;11.256;2023-03-01T20:01:52;0.70;99.90
8643;DHT22;4359;49.358;11.256;2023-03-01T20:04:18;0.60;99.90
8643;DHT22;4359;49.358;11.256;2023-03-01T20:06:44;0.40;99.90
8643;DHT22;4359;49.358;11.256;2023-03-01T20:09:09;0.20;99.90
8643;DHT22;4359;49.358;11.256;2023-03-01T20:11:35;0.10;99.90
8643;DHT22;4359;49.358;11.256;2023-03-01T20:14:00;0.00;99.90
8643;DHT22;4359;49.358;11.256;2023-03-01T20:16:27;0.00;99.90
8643;DHT22;4359;49.358;11.256;2023-03-01T20:18:53;0.00;99.90
8643;DHT22;4359;49.358;11.256;2023-03-01T20:21:19;-0.10;99.90
8643;DHT22;4359;49.358;11.256;2023-03-01T20:23:45;-0.30;99.90
8643;DHT22;4359;49.358;11.256;2023-03-01T20:26:11;-0.40;99.90
8643;DHT22;4359;49.358;11.256;2023-03-01T20:28:41;-0.40;99.90
8643;DHT22;4359;49.358;11.256;2023-03-01T20:31:08;-0.50;99.90
8643;DHT22;4359;49.358;11.256;2023-03-01T20:33:34;-0.50;99.90
8643;DHT22;4359;49.358;11.256;2023-03-01T20:35:59;-0.50;99.90
8643;DHT22;4359;49.358;11.256;2023-03-01T20:38:25;-0.50;99.90
8643;DHT22;4359;49.358;11.256;2023-03-01T20:41:01;-0.50;99.90
8643;DHT22;4359;49.358;11.256;2023-03-01T20:43:27;-0.60;99.90
8643;DHT22;4359;49.358;11.256;2023-03-01T20:45:53;-0.70;99.90
8643;DHT22;4359;49.358;11.256;2023-03-01T20:48:18;-0.80;99.90
8643;DHT22;4359;49.358;11.256;2023-03-01T20:50:44;-1.00;99.90
8643;DHT22;4359;49.358;11.256;2023-03-01T20:53:09;-0.90;99.90
8643;DHT22;4359;49.358;11.256;2023-03-01T20:55:35;-0.80;99.90
8643;DHT22;4359;49.358;11.256;2023-03-01T20:58:00;-0.80;99.90
8643;DHT22;4359;49.358;11.256;2023-03-01T21:00:26;-0.70;99.90
8643;DHT22;4359;49.358;11.256;2023-03-01T21:02:52;-0.80;99.90
8643;DHT22;4359;49.358;11.256;2023-03-01T21:05:18;-0.90;99.90
8643;DHT22;4359;49.358;11.256;2023-03-01T21:07:44;-0.90;99.90
8643;DHT22;4359;49.358;11.256;2023-03-01T21:10:10;-1.00;99.90
8643;DHT22;4359;49.358;11.256;2023-03-01T21:12:35;-1.10;99.90
8643;DHT22;4359;49.358;11.256;2023-03-01T21:15:01;-1.10;99.90
8643;DHT22;4359;49.358;11.256;2023-03-01T21:17:27;-1.10;99.90
8643;DHT22;4359;49.358;11.256;2023-03-01T21:19:52;-1.20;99.90
8643;DHT22;4359;49.358;11.256;2023-03-01T21:22:18;-1.10;99.90
8643;DHT22;4359;49.358;11.256;2023-03-01T21:24:43;-1.00;99.90
8643;DHT22;4359;49.358;11.256;2023-03-01T21:27:09;-1.10;99.90
8643;DHT22;4359;49.358;11.256;2023-03-01T21:29:38;-0.90;99.90
8643;DHT22;4359;49.358;11.256;2023-03-01T21:32:04;-0.90;99.90
8643;DHT22;4359;49.358;11.256;2023-03-01T21:34:30;-1.00;99.90
8643;DHT22;4359;49.358;11.256;2023-03-01T21:36:55;-1.20;99.90
8643;DHT22;4359;49.358;11.256;2023-03-01T21:39:21;-1.20;99.90
8643;DHT22;4359;49.358;11.256;2023-03-01T21:41:57;-1.30;99.90
8643;DHT22;4359;49.358;11.256;2023-03-01T21:44:23;-1.30;99.90
8643;DHT22;4359;49.358;11.256;2023-03-01T21:46:49;-1.20;99.90
8643;DHT22;4359;49.358;11.256;2023-03-01T21:49:15;-1.10;99.90
8643;DHT22;4359;49.358;11.256;2023-03-01T21:51:40;-1.10;99.90
8643;DHT22;4359;49.358;11.256;2023-03-01T21:54:09;-1.10;99.90
8643;DHT22;4359;49.358;11.256;2023-03-01T21:56:36;-1.20;99.90
8643;DHT22;4359;49.358;11.256;2023-03-01T21:59:03;-1.40;99.90
8643;DHT22;4359;49.358;11.256;2023-03-01T22:01:29;-1.40;99.90
8643;DHT22;4359;49.358;11.256;2023-03-01T22:03:56;-1.40;99.90
8643;DHT22;4359;49.358;11.256;2023-03-01T22:06:26;-1.50;99.90
8643;DHT22;4359;49.358;11.256;2023-03-01T22:08:57;-1.50;99.90
8643;DHT22;4359;49.358;11.256;2023-03-01T22:11:23;-1.60;99.90
8643;DHT22;4359;49.358;11.256;2023-03-01T22:13:50;-1.50;99.90
8643;DHT22;4359;49.358;11.256;2023-03-01T22:16:20;-1.40;99.90
8643;DHT22;4359;49.358;11.256;2023-03-01T22:18:46;-1.50;99.90
8643;DHT22;4359;49.358;11.256;2023-03-01T22:21:14;-1.40;99.90
8643;DHT22;4359;49.358;11.256;2023-03-01T22:23:40;-1.40;99.90
8643;DHT22;4359;49.358;11.256;2023-03-01T22:26:06;-1.40;99.90
8643;DHT22;4359;49.358;11.256;2023-03-01T22:28:32;-1.50;99.90
8643;DHT22;4359;49.358;11.256;2023-03-01T22:31:01;-1.50;99.90
8643;DHT22;4359;49.358;11.256;2023-03-01T22:33:26;-1.60;99.90
8643;DHT22;4359;49.358;11.256;2023-03-01T22:35:53;-1.60;99.90
8643;DHT22;4359;49.358;11.256;2023-03-01T22:38:19;-1.70;99.90
8643;DHT22;4359;49.358;11.256;2023-03-01T22:40:45;-1.80;99.90
8643;DHT22;4359;49.358;11.256;2023-03-01T22:43:19;-1.70;99.90
8643;DHT22;4359;49.358;11.256;2023-03-01T22:45:44;-1.70;99.90
8643;DHT22;4359;49.358;11.256;2023-03-01T22:48:10;-1.80;99.90
8643;DHT22;4359;49.358;11.256;2023-03-01T22:50:35;-1.80;99.90
8643;DHT22;4359;49.358;11.256;2023-03-01T22:53:01;-1.80;99.90
8643;DHT22;4359;49.358;11.256;2023-03-01T22:55:27;-1.70;99.90
8643;DHT22;4359;49.358;11.256;2023-03-01T22:57:53;-1.60;99.90
8643;DHT22;4359;49.358;11.256;2023-03-01T23:00:18;-1.60;99.90
8643;DHT22;4359;49.358;11.256;2023-03-01T23:02:44;-1.60;99.90
8643;DHT22;4359;49.358;11.256;2023-03-01T23:05:09;-1.60;99.90
8643;DHT22;4359;49.358;11.256;2023-03-01T23:07:35;-1.60;99.90
8643;DHT22;4359;49.358;11.256;2023-03-01T23:10:02;-1.60;99.90
8643;DHT22;4359;49.358;11.256;2023-03-01T23:12:28;-1.70;99.90
8643;DHT22;4359;49.358;11.256;2023-03-01T23:14:53;-1.70;99.90
8643;DHT22;4359;49.358;11.256;2023-03-01T23:17:19;-1.70;99.90
8643;DHT22;4359;49.358;11.256;2023-03-01T23:19:44;-1.60;99.90
8643;DHT22;4359;49.358;11.256;2023-03-01T23:22:10;-1.60;99.90
8643;DHT22;4359;49.358;11.256;2023-03-01T23:24:35;-1.60;99.90
8643;DHT22;4359;49.358;11.256;2023-03-01T23:27:01;-1.60;99.90
8643;DHT22;4359;49.358;11.256;2023-03-01T23:29:27;-1.70;99.90
8643;DHT22;4359;49.358;11.256;2023-03-01T23:31:55;-1.70;99.90
8643;DHT22;4359;49.358;11.256;2023-03-01T23:34:22;-1.70;99.90
8643;DHT22;4359;49.358;11.256;2023-03-01T23:36:50;-1.80;99.90
8643;DHT22;4359;49.358;11.256;2023-03-01T23:39:16;-1.80;99.90
8643;DHT22;4359;49.358;11.256;2023-03-01T23:41:41;-1.80;99.90
8643;DHT22;4359;49.358;11.256;2023-03-01T23:44:07;-1.70;99.90
8643;DHT22;4359;49.358;11.256;2023-03-01T23:46:33;-1.70;99.90
8643;DHT22;4359;49.358;11.256;2023-03-01T23:48:59;-1.80;99.90
8643;DHT22;4359;49.358;11.256;2023-03-01T23:51:25;-1.80;99.90
8643;DHT22;4359;49.358;11.256;2023-03-01T23:53:51;-1.80;99.90
8643;DHT22;4359;49.358;11.256;2023-03-01T23:56:31;-1.80;99.90
8643;DHT22;4359;49.358;11.256;2023-03-01T23:59:01;-1.90;99.90
